Kezdőlap
METAR-TAF:

METAR-TAF

Repülőterek :

Tomszk, Oroszország

földrajzi szélesség: 56-23-12N, földrajzi hosszúság: 085-12-38E, magasság: 182 m

Jelenlegi meteorológiai megfigyelések

A jelentés 38 perccel ezelõtt készült, 08:00 UTC
Keleti szél 6 kt
Hőmérséklet 4°C
Páratartalom 56%
Légköri nyomás 1026 hPa
Látótávolság 10 km, vagy több
Szórványos felhőzet 4100 lábon

METAR: UNTT 250800Z 10003MPS 9999 SCT041 04/M04 Q1026 R21/190055 NOSIG RMK QFE754

Idő: 15:38 (08:38 UTC)

Előrejelzés

A jelentés 38 perccel ezelõtt készült, 08:00 UTC
Az előrejelzés 25-én 09 óra UTC és 25-én 18 óra UTC között érvényes
Északkeleti szél 6 kt
Látótávolság: 8000 m
Szórványos felhőzet 4000 lábon

TAF: UNTT 250800Z 2509/2518 04003MPS 8000 SCT040

Meteorológiai megfigyelések és előrejelzések több, mint 4000 repülőtéren (METAR és TAF jelentéseket).

A térképen piros és sárga pontok jelzik az elérhető meteorológiai állomásokat.

Mozgassa az egeret a pont fölött, hogy megjelenjen az állomás neve.

Azután kattintson az időjárási megfigyelések és előrejelzések megtekintéséhez.

A térkép megváltoztatása: kattintson a fekete keresztel jelölt zöld gombra ráközelítéshez, a vonallal jelölt zöld gombra távolításhoz, vagy a zöld nyilakra a szomszédos térképek eléréséhez.


METAR-TAF: